Time;durP1;ratioP1;P1;durP2;ratioP2;P2;SDS_P1;SDS_P2;PMS_P1;PMS_P2;Temp;Humidity;BMP_temperature;BMP_pressure;BME280_temperature;BME280_humidity;BME280_pressure;Samples;Min_cycle;Max_cycle;Signal;HPM_P1;HPM_P2
2022/08/20 00:02:25;;;;;;;6.57;3.80;;;;;;;;;;5103265;28;20044;-69
2022/08/20 00:04:51;;;;;;;9.43;4.38;;;;;;;;;;5110515;28;20127;-69
2022/08/20 00:07:17;;;;;;;8.43;4.47;;;;;;;;;;5108161;28;20142;-69
2022/08/20 00:09:43;;;;;;;8.20;4.80;;;;;;;;;;5087842;28;20085;-69
2022/08/20 00:12:10;;;;;;;8.90;4.80;;;;;;;;;;5109325;28;20043;-69
2022/08/20 00:14:37;;;;;;;12.38;5.40;;;;;;;;;;5090867;28;20505;-69
2022/08/20 00:17:04;;;;;;;12.02;4.55;;;;;;;;;;5111311;27;20447;-69
2022/08/20 00:19:30;;;;;;;8.43;4.00;;;;;;;;;;5122656;27;20047;-69
2022/08/20 00:21:56;;;;;;;13.32;5.03;;;;;;;;;;5108804;27;20032;-69
2022/08/20 00:24:22;;;;;;;10.75;3.95;;;;;;;;;;5112659;27;20039;-69
2022/08/20 00:26:49;;;;;;;6.43;4.55;;;;;;;;;;5094817;28;20067;-69
2022/08/20 00:29:15;;;;;;;7.55;4.60;;;;;;;;;;5093424;28;20382;-69
2022/08/20 00:31:41;;;;;;;11.98;4.53;;;;;;;;;;5106885;28;20085;-69
2022/08/20 00:34:08;;;;;;;7.45;5.22;;;;;;;;;;5090859;28;20088;-69
2022/08/20 00:36:34;;;;;;;8.75;5.35;;;;;;;;;;5112434;27;20040;-69
2022/08/20 00:39:00;;;;;;;10.32;5.22;;;;;;;;;;5111445;28;20035;-69
2022/08/20 00:41:27;;;;;;;9.25;4.78;;;;;;;;;;5093934;28;20044;-69
2022/08/20 00:44:17;;;;;;;12.27;5.18;;;;;;;;;;5112674;28;20054;-70
2022/08/20 00:46:44;;;;;;;7.53;4.47;;;;;;;;;;5098997;27;20048;-69
2022/08/20 00:49:13;;;;;;;8.55;4.60;;;;;;;;;;5119551;27;20087;-69
2022/08/20 00:51:42;;;;;;;9.73;4.43;;;;;;;;;;5113998;27;20035;-70
2022/08/20 00:54:19;;;;;;;6.10;4.78;;;;;;;;;;5109428;27;20050;-69
2022/08/20 00:56:48;;;;;;;7.53;4.30;;;;;;;;;;5117174;27;20043;-69
2022/08/20 00:59:16;;;;;;;8.18;4.43;;;;;;;;;;5081951;28;20097;-69
2022/08/20 01:01:43;;;;;;;5.88;4.22;;;;;;;;;;5108229;27;20031;-69
2022/08/20 01:04:09;;;;;;;10.00;4.97;;;;;;;;;;5112195;27;20071;-69
2022/08/20 01:06:37;;;;;;;9.40;5.55;;;;;;;;;;5116696;27;20043;-69
2022/08/20 01:09:04;;;;;;;8.05;4.85;;;;;;;;;;5091741;28;20047;-69
2022/08/20 01:11:33;;;;;;;9.68;5.03;;;;;;;;;;5118841;27;20036;-69
2022/08/20 01:14:01;;;;;;;8.30;5.13;;;;;;;;;;5111698;27;20039;-69
2022/08/20 01:16:30;;;;;;;11.38;4.97;;;;;;;;;;5111614;27;20442;-69
2022/08/20 01:18:56;;;;;;;7.70;5.15;;;;;;;;;;5102441;27;20405;-69
2022/08/20 01:21:32;;;;;;;10.15;5.00;;;;;;;;;;5118970;27;20035;-69
2022/08/20 01:24:02;;;;;;;7.53;4.88;;;;;;;;;;5107035;27;20047;-69
2022/08/20 01:26:31;;;;;;;8.98;4.70;;;;;;;;;;5093724;27;20442;-69
2022/08/20 01:29:03;;;;;;;10.48;4.57;;;;;;;;;;5106882;27;20444;-69
2022/08/20 01:31:30;;;;;;;7.07;4.65;;;;;;;;;;5094908;28;20092;-70
2022/08/20 01:33:58;;;;;;;10.82;5.35;;;;;;;;;;5108455;27;20036;-69
2022/08/20 01:36:26;;;;;;;6.60;3.97;;;;;;;;;;5111047;27;20042;-69
2022/08/20 01:38:52;;;;;;;7.90;4.47;;;;;;;;;;5109162;27;20123;-69
2022/08/20 01:41:21;;;;;;;8.30;4.97;;;;;;;;;;5114355;27;20032;-69
2022/08/20 01:43:49;;;;;;;8.30;4.93;;;;;;;;;;5092963;28;20050;-68
2022/08/20 01:46:16;;;;;;;11.25;4.53;;;;;;;;;;5111145;27;20057;-69
2022/08/20 01:48:43;;;;;;;7.72;4.32;;;;;;;;;;5100937;27;20105;-70
2022/08/20 01:51:13;;;;;;;9.23;4.50;;;;;;;;;;5110823;28;20203;-68
2022/08/20 01:53:41;;;;;;;7.00;4.13;;;;;;;;;;5115682;27;20035;-69
2022/08/20 01:56:09;;;;;;;9.82;5.00;;;;;;;;;;5111054;28;20051;-69
2022/08/20 01:58:37;;;;;;;10.63;4.13;;;;;;;;;;5122358;27;20047;-69
2022/08/20 02:01:04;;;;;;;13.57;4.82;;;;;;;;;;5111024;27;20042;-69
2022/08/20 02:03:30;;;;;;;6.45;4.63;;;;;;;;;;5103839;28;20036;-69
2022/08/20 02:05:59;;;;;;;7.38;4.45;;;;;;;;;;5110314;28;20046;-69
2022/08/20 02:08:25;;;;;;;8.98;4.63;;;;;;;;;;5109495;27;20092;-68
2022/08/20 02:10:51;;;;;;;13.52;4.47;;;;;;;;;;5107951;27;20035;-69
2022/08/20 02:13:17;;;;;;;10.93;3.83;;;;;;;;;;5103866;27;20078;-69
2022/08/20 02:15:43;;;;;;;12.23;4.55;;;;;;;;;;5104892;28;20027;-69
2022/08/20 02:18:11;;;;;;;7.32;3.78;;;;;;;;;;5105270;28;20046;-69
2022/08/20 02:20:38;;;;;;;7.57;3.80;;;;;;;;;;5107732;28;20031;-69
2022/08/20 02:23:05;;;;;;;6.13;3.50;;;;;;;;;;5101965;28;20055;-69
2022/08/20 02:25:33;;;;;;;7.65;4.18;;;;;;;;;;5110159;28;20039;-69
2022/08/20 02:28:01;;;;;;;7.88;3.38;;;;;;;;;;5111477;27;20209;-69
2022/08/20 02:30:28;;;;;;;6.60;3.30;;;;;;;;;;5091000;28;20039;-69
2022/08/20 02:32:55;;;;;;;7.10;3.05;;;;;;;;;;5117956;27;20089;-69
2022/08/20 02:35:23;;;;;;;5.32;2.78;;;;;;;;;;5109706;27;20540;-69
2022/08/20 02:37:49;;;;;;;8.10;2.80;;;;;;;;;;5091434;28;20481;-69
2022/08/20 02:40:16;;;;;;;7.45;3.25;;;;;;;;;;5108925;28;20082;-69
2022/08/20 02:42:43;;;;;;;8.35;3.03;;;;;;;;;;5110191;27;20075;-69
2022/08/20 02:45:12;;;;;;;8.48;2.97;;;;;;;;;;5116874;27;20430;-69
2022/08/20 02:47:38;;;;;;;6.47;2.97;;;;;;;;;;5110958;27;20051;-68
2022/08/20 02:50:05;;;;;;;8.10;3.03;;;;;;;;;;5110074;28;20123;-70
2022/08/20 02:52:32;;;;;;;5.95;3.30;;;;;;;;;;5108271;27;20046;-69
2022/08/20 02:54:58;;;;;;;6.70;2.50;;;;;;;;;;5109655;28;20039;-69
2022/08/20 02:57:24;;;;;;;6.15;2.45;;;;;;;;;;5120303;27;20035;-69
2022/08/20 02:59:53;;;;;;;8.55;2.95;;;;;;;;;;5092465;28;20505;-69
2022/08/20 03:02:20;;;;;;;7.25;2.83;;;;;;;;;;5116002;27;20048;-69
2022/08/20 03:04:46;;;;;;;11.70;3.58;;;;;;;;;;5111931;27;20046;-69
2022/08/20 03:07:13;;;;;;;8.38;2.38;;;;;;;;;;5108958;28;20040;-69
2022/08/20 03:09:40;;;;;;;4.78;2.55;;;;;;;;;;5097179;28;20074;-69
2022/08/20 03:12:06;;;;;;;7.72;3.00;;;;;;;;;;5121481;27;20396;-69
2022/08/20 03:14:33;;;;;;;6.28;2.58;;;;;;;;;;5097253;28;20524;-69
2022/08/20 03:16:59;;;;;;;9.07;3.45;;;;;;;;;;5109317;28;20040;-69
2022/08/20 03:19:26;;;;;;;6.07;2.75;;;;;;;;;;5091921;28;20063;-70
2022/08/20 03:21:52;;;;;;;6.55;2.80;;;;;;;;;;5109730;28;20031;-69
2022/08/20 03:24:18;;;;;;;6.00;2.95;;;;;;;;;;5108819;28;20074;-69
2022/08/20 03:26:44;;;;;;;11.95;3.95;;;;;;;;;;5116764;28;20031;-69
2022/08/20 03:29:11;;;;;;;6.88;2.70;;;;;;;;;;5101389;28;20040;-69
2022/08/20 03:31:37;;;;;;;9.70;3.20;;;;;;;;;;5112219;28;20578;-69
2022/08/20 03:34:03;;;;;;;17.58;3.80;;;;;;;;;;5107096;28;20039;-69
2022/08/20 03:36:29;;;;;;;6.13;2.80;;;;;;;;;;5109450;28;20507;-69
2022/08/20 03:38:57;;;;;;;6.28;2.33;;;;;;;;;;5116608;28;20036;-69
2022/08/20 03:41:23;;;;;;;8.45;3.20;;;;;;;;;;5108894;28;20039;-69
2022/08/20 03:43:49;;;;;;;7.97;2.97;;;;;;;;;;5112956;28;20050;-70
2022/08/20 03:46:16;;;;;;;7.85;2.50;;;;;;;;;;5088713;28;20055;-69
2022/08/20 03:48:42;;;;;;;4.43;2.40;;;;;;;;;;5106993;28;20052;-70
2022/08/20 03:51:08;;;;;;;5.25;2.60;;;;;;;;;;5118358;28;20545;-69
2022/08/20 03:53:35;;;;;;;5.65;2.97;;;;;;;;;;5111903;27;20051;-69
2022/08/20 03:56:04;;;;;;;6.13;2.10;;;;;;;;;;5113081;27;20180;-69
2022/08/20 03:58:31;;;;;;;8.13;2.60;;;;;;;;;;5095013;28;20051;-69
2022/08/20 04:00:58;;;;;;;6.65;2.40;;;;;;;;;;5113387;27;20040;-69
2022/08/20 04:03:25;;;;;;;5.63;3.20;;;;;;;;;;5096773;27;20051;-70
2022/08/20 04:05:52;;;;;;;4.72;2.40;;;;;;;;;;5105493;28;20100;-69
2022/08/20 04:08:20;;;;;;;6.43;2.28;;;;;;;;;;5100520;27;20378;-69
2022/08/20 04:10:47;;;;;;;9.43;3.05;;;;;;;;;;5110901;28;20614;-69
2022/08/20 04:13:14;;;;;;;9.48;3.42;;;;;;;;;;5112334;27;20467;-69
2022/08/20 04:15:40;;;;;;;8.70;3.38;;;;;;;;;;5112536;27;20071;-69
2022/08/20 04:18:08;;;;;;;6.10;2.72;;;;;;;;;;5112186;28;20038;-68
2022/08/20 04:20:35;;;;;;;6.78;2.58;;;;;;;;;;5111417;27;20035;-69
2022/08/20 04:23:01;;;;;;;4.50;2.63;;;;;;;;;;5109991;27;20103;-69
2022/08/20 04:25:30;;;;;;;7.97;3.22;;;;;;;;;;5108680;27;20039;-69
2022/08/20 04:28:00;;;;;;;8.07;2.40;;;;;;;;;;5101562;27;20052;-69
2022/08/20 04:30:26;;;;;;;6.57;2.53;;;;;;;;;;5121740;27;20231;-69
2022/08/20 04:32:54;;;;;;;8.35;3.05;;;;;;;;;;5120815;27;20069;-68
2022/08/20 04:35:23;;;;;;;6.32;2.88;;;;;;;;;;5112440;27;20039;-69
2022/08/20 04:37:49;;;;;;;4.03;2.17;;;;;;;;;;5114057;27;20048;-69
2022/08/20 04:43:06;;;;;;;5.93;2.35;;;;;;;;;;5106618;27;20386;-69
2022/08/20 04:45:32;;;;;;;4.82;2.50;;;;;;;;;;5109022;28;20036;-69
2022/08/20 04:48:04;;;;;;;4.05;2.08;;;;;;;;;;5096684;28;20043;-69
2022/08/20 04:50:34;;;;;;;6.53;2.15;;;;;;;;;;5113017;27;20048;-69
2022/08/20 04:53:00;;;;;;;9.57;2.58;;;;;;;;;;5111556;27;20270;-69
2022/08/20 04:55:26;;;;;;;4.35;2.42;;;;;;;;;;5117207;27;20156;-69
2022/08/20 04:57:53;;;;;;;6.43;2.85;;;;;;;;;;5100629;28;20115;-69
2022/08/20 05:00:19;;;;;;;4.50;2.10;;;;;;;;;;5082914;27;20032;-69
2022/08/20 05:02:45;;;;;;;3.83;2.03;;;;;;;;;;5108263;27;20500;-69
2022/08/20 05:05:13;;;;;;;5.18;2.10;;;;;;;;;;5103219;27;20404;-69
2022/08/20 05:07:44;;;;;;;6.25;2.55;;;;;;;;;;5101650;28;20039;-69
2022/08/20 05:10:12;;;;;;;5.15;2.05;;;;;;;;;;5100733;27;20296;-69
2022/08/20 05:12:39;;;;;;;5.75;2.17;;;;;;;;;;5104335;27;20122;-69
2022/08/20 05:15:06;;;;;;;5.70;2.42;;;;;;;;;;5102860;27;20824;-69
2022/08/20 05:17:32;;;;;;;5.88;2.45;;;;;;;;;;5090356;28;20042;-69
2022/08/20 05:19:59;;;;;;;7.20;2.58;;;;;;;;;;5110230;28;20039;-69
2022/08/20 05:22:26;;;;;;;6.63;2.40;;;;;;;;;;5106924;28;20047;-69
2022/08/20 05:24:55;;;;;;;5.28;2.50;;;;;;;;;;5084272;28;20039;-69
2022/08/20 05:27:25;;;;;;;4.25;2.40;;;;;;;;;;5092150;27;20044;-68
2022/08/20 05:29:52;;;;;;;8.35;3.03;;;;;;;;;;5098780;27;20031;-69
2022/08/20 05:32:19;;;;;;;8.05;3.20;;;;;;;;;;5077059;28;20271;-69
2022/08/20 05:34:45;;;;;;;8.43;2.50;;;;;;;;;;5103211;27;20027;-69
2022/08/20 05:37:11;;;;;;;5.38;2.97;;;;;;;;;;5109141;28;20232;-69
2022/08/20 05:39:37;;;;;;;7.15;2.08;;;;;;;;;;5108161;28;20050;-68
2022/08/20 05:42:03;;;;;;;8.00;3.20;;;;;;;;;;5111056;27;20039;-69
2022/08/20 05:44:30;;;;;;;8.57;2.80;;;;;;;;;;5111175;28;20035;-69
2022/08/20 05:46:56;;;;;;;7.47;2.53;;;;;;;;;;5110666;27;20047;-69
2022/08/20 05:49:22;;;;;;;5.35;2.03;;;;;;;;;;5111334;27;20511;-68
2022/08/20 05:51:52;;;;;;;8.98;2.80;;;;;;;;;;5110724;28;20038;-69
2022/08/20 05:54:19;;;;;;;4.88;2.30;;;;;;;;;;5091886;28;20040;-69
2022/08/20 05:56:45;;;;;;;7.93;3.47;;;;;;;;;;5111123;27;20043;-68
2022/08/20 05:59:12;;;;;;;5.80;2.55;;;;;;;;;;5111063;27;20067;-68
2022/08/20 06:01:39;;;;;;;5.90;2.65;;;;;;;;;;5087575;28;20085;-68
2022/08/20 06:04:25;;;;;;;6.72;3.10;;;;;;;;;;5105924;27;20048;-69
2022/08/20 06:06:53;;;;;;;6.70;3.38;;;;;;;;;;5109428;28;20078;-68
2022/08/20 06:09:21;;;;;;;8.52;2.85;;;;;;;;;;5113734;27;20048;-68
2022/08/20 06:11:47;;;;;;;9.25;2.60;;;;;;;;;;5110576;27;20053;-69
2022/08/20 06:14:15;;;;;;;9.48;2.45;;;;;;;;;;5112057;27;20412;-68
2022/08/20 06:16:42;;;;;;;7.72;2.28;;;;;;;;;;5093931;28;20478;-68
2022/08/20 06:19:08;;;;;;;5.75;2.42;;;;;;;;;;5103922;27;20040;-68
2022/08/20 06:21:34;;;;;;;7.68;2.42;;;;;;;;;;5107296;27;20046;-67
2022/08/20 06:24:00;;;;;;;6.40;2.38;;;;;;;;;;5109689;27;20602;-68
2022/08/20 06:26:27;;;;;;;15.13;3.65;;;;;;;;;;5111856;27;20040;-68
2022/08/20 06:28:53;;;;;;;7.38;2.47;;;;;;;;;;5112629;27;20062;-63
2022/08/20 06:31:20;;;;;;;5.95;2.35;;;;;;;;;;5100673;28;20040;-65
2022/08/20 06:33:46;;;;;;;6.47;2.95;;;;;;;;;;5110198;28;20036;-65
2022/08/20 06:36:13;;;;;;;6.18;2.03;;;;;;;;;;5109971;27;20080;-65
2022/08/20 06:38:39;;;;;;;6.68;2.55;;;;;;;;;;5081557;27;20434;-65
2022/08/20 06:41:06;;;;;;;4.78;2.25;;;;;;;;;;5111027;27;20148;-65
2022/08/20 06:43:33;;;;;;;7.13;2.33;;;;;;;;;;5109537;28;20058;-66
2022/08/20 06:45:59;;;;;;;4.53;2.38;;;;;;;;;;5110291;27;20047;-66
2022/08/20 06:48:25;;;;;;;5.88;2.55;;;;;;;;;;5107779;28;20040;-65
2022/08/20 06:50:52;;;;;;;6.90;2.45;;;;;;;;;;5108063;27;20104;-65
2022/08/20 06:53:19;;;;;;;6.05;2.17;;;;;;;;;;5108657;28;20236;-65
2022/08/20 06:55:47;;;;;;;11.45;2.75;;;;;;;;;;5108835;28;20126;-67
2022/08/20 06:58:14;;;;;;;7.95;2.63;;;;;;;;;;5107754;27;20046;-67
2022/08/20 07:00:42;;;;;;;2.63;1.33;;;;;;;;;;5109278;28;20035;-67
2022/08/20 07:03:08;;;;;;;7.60;2.50;;;;;;;;;;5110381;28;20047;-67
2022/08/20 07:05:36;;;;;;;4.78;1.92;;;;;;;;;;5110236;28;20043;-67
2022/08/20 07:08:03;;;;;;;5.60;2.38;;;;;;;;;;5109066;28;20047;-67
2022/08/20 07:10:29;;;;;;;8.35;3.30;;;;;;;;;;5109248;28;20028;-67
2022/08/20 07:12:58;;;;;;;6.93;2.50;;;;;;;;;;5109966;27;20069;-67
2022/08/20 07:15:25;;;;;;;9.60;2.92;;;;;;;;;;5110332;28;20828;-67
2022/08/20 07:17:53;;;;;;;4.90;2.08;;;;;;;;;;5110242;28;20039;-67
2022/08/20 07:20:19;;;;;;;6.10;2.38;;;;;;;;;;5108605;28;20061;-67
2022/08/20 07:22:46;;;;;;;4.72;1.83;;;;;;;;;;5108704;28;20404;-67
2022/08/20 07:25:13;;;;;;;5.93;2.08;;;;;;;;;;5100288;28;20437;-67
2022/08/20 07:27:40;;;;;;;6.45;1.80;;;;;;;;;;5120158;27;20349;-67
2022/08/20 07:32:52;;;;;;;5.35;2.53;;;;;;;;;;5113684;28;20032;-67
2022/08/20 07:35:19;;;;;;;8.82;2.70;;;;;;;;;;5093881;28;20027;-67
2022/08/20 07:37:47;;;;;;;6.85;2.40;;;;;;;;;;5102305;27;20046;-67
2022/08/20 07:40:15;;;;;;;8.23;2.33;;;;;;;;;;5113101;27;20515;-67
2022/08/20 07:42:41;;;;;;;4.68;2.20;;;;;;;;;;5111325;27;20039;-67
2022/08/20 07:45:09;;;;;;;7.25;2.45;;;;;;;;;;5095060;28;20464;-67
2022/08/20 07:47:40;;;;;;;6.28;2.35;;;;;;;;;;5115942;27;20047;-67
2022/08/20 07:50:07;;;;;;;6.13;2.35;;;;;;;;;;5110458;27;20119;-66
2022/08/20 07:52:34;;;;;;;6.85;2.33;;;;;;;;;;5096811;28;20397;-67
2022/08/20 07:55:01;;;;;;;5.47;1.80;;;;;;;;;;5081330;28;20436;-67
2022/08/20 07:57:27;;;;;;;8.23;2.88;;;;;;;;;;5099130;28;20054;-67
2022/08/20 07:59:55;;;;;;;6.63;2.42;;;;;;;;;;5082793;28;20043;-66
2022/08/20 08:02:21;;;;;;;6.20;2.25;;;;;;;;;;5111005;28;20615;-66
2022/08/20 08:04:47;;;;;;;6.70;2.75;;;;;;;;;;5111725;28;20032;-66
2022/08/20 08:07:15;;;;;;;8.63;2.22;;;;;;;;;;5113342;27;20043;-66
2022/08/20 08:09:43;;;;;;;6.22;2.00;;;;;;;;;;5107047;27;20036;-66
2022/08/20 08:12:11;;;;;;;11.30;3.10;;;;;;;;;;5108271;27;20036;-66
2022/08/20 08:14:38;;;;;;;6.35;2.22;;;;;;;;;;5093940;28;20101;-66
2022/08/20 08:17:06;;;;;;;10.68;2.33;;;;;;;;;;5109379;27;20039;-66
2022/08/20 08:19:37;;;;;;;10.02;2.97;;;;;;;;;;5109241;27;20047;-66
2022/08/20 08:22:11;;;;;;;6.00;2.22;;;;;;;;;;5108797;27;20039;-63
2022/08/20 08:24:37;;;;;;;6.72;1.98;;;;;;;;;;5093580;27;20092;-63
2022/08/20 08:27:03;;;;;;;13.20;3.08;;;;;;;;;;5116767;27;20039;-64
2022/08/20 08:29:29;;;;;;;11.50;2.38;;;;;;;;;;5112854;27;20042;-64
2022/08/20 08:31:56;;;;;;;6.32;1.98;;;;;;;;;;5110436;28;20092;-64
2022/08/20 08:34:25;;;;;;;5.72;2.28;;;;;;;;;;5070593;28;20074;-63
2022/08/20 08:36:52;;;;;;;7.00;2.20;;;;;;;;;;5098757;27;20111;-64
2022/08/20 08:39:18;;;;;;;6.40;2.53;;;;;;;;;;5110970;27;20040;-64
2022/08/20 08:41:48;;;;;;;6.35;1.85;;;;;;;;;;5109017;27;20043;-64
2022/08/20 08:44:23;;;;;;;3.85;1.70;;;;;;;;;;5112378;27;20043;-64
2022/08/20 08:46:52;;;;;;;7.45;2.42;;;;;;;;;;5109495;27;20097;-64
2022/08/20 08:49:23;;;;;;;7.05;2.00;;;;;;;;;;5094879;28;20116;-64
2022/08/20 08:51:54;;;;;;;5.60;2.13;;;;;;;;;;5108822;28;20744;-64
2022/08/20 08:54:23;;;;;;;9.35;2.75;;;;;;;;;;5112806;27;20462;-64
2022/08/20 08:56:49;;;;;;;6.15;2.28;;;;;;;;;;5112620;28;20042;-65
2022/08/20 08:59:16;;;;;;;9.30;2.08;;;;;;;;;;5090679;28;20116;-63
2022/08/20 09:02:02;;;;;;;7.25;2.10;;;;;;;;;;5094683;28;20123;-63
2022/08/20 09:04:32;;;;;;;8.00;2.17;;;;;;;;;;5092116;28;20043;-64
2022/08/20 09:06:59;;;;;;;8.20;2.22;;;;;;;;;;5110350;27;20087;-63
2022/08/20 09:09:31;;;;;;;10.88;2.75;;;;;;;;;;5094039;28;20036;-62
2022/08/20 09:12:02;;;;;;;5.90;2.47;;;;;;;;;;5105598;27;20044;-64
2022/08/20 09:14:28;;;;;;;6.50;2.80;;;;;;;;;;5110923;27;20039;-64
2022/08/20 09:16:54;;;;;;;9.55;2.78;;;;;;;;;;5069388;28;20039;-63
2022/08/20 09:19:20;;;;;;;7.68;3.22;;;;;;;;;;5097508;28;20485;-64
2022/08/20 09:21:47;;;;;;;6.28;2.40;;;;;;;;;;5110134;27;20027;-64
2022/08/20 09:24:13;;;;;;;9.63;2.75;;;;;;;;;;5110889;27;20221;-63
2022/08/20 09:26:39;;;;;;;9.25;2.42;;;;;;;;;;5099621;28;20577;-64
2022/08/20 09:29:05;;;;;;;7.50;2.75;;;;;;;;;;5104768;27;20107;-64
2022/08/20 09:31:31;;;;;;;10.52;3.20;;;;;;;;;;5114238;27;20078;-65
2022/08/20 09:33:57;;;;;;;10.07;2.15;;;;;;;;;;5113584;27;20043;-65
2022/08/20 09:36:23;;;;;;;6.72;2.10;;;;;;;;;;5111550;27;20185;-66
2022/08/20 09:38:50;;;;;;;9.18;3.13;;;;;;;;;;5108612;27;20065;-65
2022/08/20 09:41:16;;;;;;;7.55;2.40;;;;;;;;;;5097863;28;20165;-69
2022/08/20 09:43:42;;;;;;;6.00;2.78;;;;;;;;;;5104995;27;20033;-72
2022/08/20 09:46:08;;;;;;;7.75;2.40;;;;;;;;;;5107026;27;20055;-72
2022/08/20 09:48:34;;;;;;;8.55;3.30;;;;;;;;;;5112901;27;20040;-72
2022/08/20 09:51:01;;;;;;;7.38;3.45;;;;;;;;;;5109381;28;20104;-72
2022/08/20 09:53:27;;;;;;;7.00;2.53;;;;;;;;;;5104134;27;20160;-72
2022/08/20 09:55:54;;;;;;;5.85;2.33;;;;;;;;;;5109169;28;20088;-72
2022/08/20 09:58:20;;;;;;;5.95;1.83;;;;;;;;;;5093157;28;20119;-73
2022/08/20 10:00:47;;;;;;;4.97;2.25;;;;;;;;;;5110193;28;20035;-72
2022/08/20 10:03:13;;;;;;;8.13;2.20;;;;;;;;;;5111612;28;20147;-73
2022/08/20 10:05:39;;;;;;;11.90;3.00;;;;;;;;;;5111540;27;20035;-73
2022/08/20 10:08:06;;;;;;;7.25;2.35;;;;;;;;;;5111432;28;20043;-73
2022/08/20 10:10:32;;;;;;;5.30;2.03;;;;;;;;;;5110796;27;20032;-73
2022/08/20 10:12:58;;;;;;;9.40;2.78;;;;;;;;;;5094403;27;20204;-73
2022/08/20 10:15:24;;;;;;;5.53;1.73;;;;;;;;;;5094091;27;20113;-75
2022/08/20 10:17:51;;;;;;;7.75;2.40;;;;;;;;;;5085325;28;20146;-73
2022/08/20 10:20:17;;;;;;;6.93;2.38;;;;;;;;;;5089540;28;20044;-74
2022/08/20 10:22:44;;;;;;;6.45;2.40;;;;;;;;;;5111706;28;20051;-74
2022/08/20 10:25:11;;;;;;;5.18;2.83;;;;;;;;;;5098043;27;20415;-74
2022/08/20 10:27:37;;;;;;;4.97;2.00;;;;;;;;;;5110086;27;20048;-74
2022/08/20 10:30:05;;;;;;;5.20;2.10;;;;;;;;;;5100543;27;20028;-74
2022/08/20 10:32:32;;;;;;;5.18;2.10;;;;;;;;;;5109694;27;20039;-74
2022/08/20 10:34:58;;;;;;;7.75;2.45;;;;;;;;;;5111345;27;20056;-74
2022/08/20 10:37:25;;;;;;;30.02;6.70;;;;;;;;;;5117061;27;20035;-74
2022/08/20 10:39:51;;;;;;;7.72;2.90;;;;;;;;;;5109835;28;20074;-74
2022/08/20 10:42:18;;;;;;;6.00;1.73;;;;;;;;;;5109293;27;20437;-75
2022/08/20 10:44:44;;;;;;;7.85;2.08;;;;;;;;;;5101671;27;20036;-75
2022/08/20 10:47:36;;;;;;;7.40;2.85;;;;;;;;;;5112312;27;20047;-76
2022/08/20 10:50:05;;;;;;;11.48;2.40;;;;;;;;;;5101406;27;20126;-74
2022/08/20 10:52:31;;;;;;;8.10;2.80;;;;;;;;;;5117913;27;20436;-72
2022/08/20 10:54:57;;;;;;;5.93;2.42;;;;;;;;;;5097941;28;20343;-72
2022/08/20 10:57:25;;;;;;;4.30;1.92;;;;;;;;;;5096695;28;20111;-73
2022/08/20 10:59:52;;;;;;;11.32;1.75;;;;;;;;;;5110542;27;20567;-74
2022/08/20 11:02:19;;;;;;;4.45;1.95;;;;;;;;;;5107304;27;20032;-74
2022/08/20 11:04:45;;;;;;;10.02;2.50;;;;;;;;;;5116953;27;20484;-72
2022/08/20 11:07:16;;;;;;;6.22;2.60;;;;;;;;;;5114140;27;20039;-72
2022/08/20 11:09:43;;;;;;;5.80;3.30;;;;;;;;;;5109364;27;20036;-72
2022/08/20 11:12:09;;;;;;;12.65;3.30;;;;;;;;;;5107150;28;20118;-72
2022/08/20 11:14:35;;;;;;;11.18;2.20;;;;;;;;;;5103847;27;20031;-71
2022/08/20 11:17:02;;;;;;;3.90;1.98;;;;;;;;;;5109566;28;20134;-71
2022/08/20 11:19:28;;;;;;;3.50;1.80;;;;;;;;;;5108177;28;20093;-71
2022/08/20 11:21:54;;;;;;;10.00;2.35;;;;;;;;;;5089746;28;20043;-72
2022/08/20 11:24:21;;;;;;;9.20;2.40;;;;;;;;;;5117083;28;20053;-72
2022/08/20 11:26:47;;;;;;;7.68;2.88;;;;;;;;;;5103714;28;20122;-72
2022/08/20 11:29:14;;;;;;;9.90;2.33;;;;;;;;;;5106261;28;20036;-72
2022/08/20 11:31:40;;;;;;;5.43;2.47;;;;;;;;;;5111411;28;20519;-72
2022/08/20 11:34:06;;;;;;;9.68;2.53;;;;;;;;;;5108621;28;20039;-72
2022/08/20 11:36:33;;;;;;;9.52;3.25;;;;;;;;;;5083747;28;20750;-72
2022/08/20 11:38:59;;;;;;;4.20;2.03;;;;;;;;;;5119166;28;20059;-71
2022/08/20 11:41:25;;;;;;;6.10;2.30;;;;;;;;;;5107797;28;20047;-72
2022/08/20 11:43:51;;;;;;;6.47;2.80;;;;;;;;;;5112774;28;20043;-73
2022/08/20 11:46:17;;;;;;;8.45;2.78;;;;;;;;;;5110444;28;20164;-72
2022/08/20 11:48:43;;;;;;;6.95;2.47;;;;;;;;;;5104720;28;20047;-73
2022/08/20 11:51:09;;;;;;;9.45;3.83;;;;;;;;;;5119668;28;20031;-73
2022/08/20 11:53:35;;;;;;;4.88;2.60;;;;;;;;;;5109016;28;20035;-73
2022/08/20 11:56:02;;;;;;;6.03;2.55;;;;;;;;;;5101621;28;20032;-72
2022/08/20 11:58:28;;;;;;;7.50;2.50;;;;;;;;;;5108935;28;20040;-73
2022/08/20 12:00:54;;;;;;;9.40;3.22;;;;;;;;;;5109974;28;20408;-72
2022/08/20 12:03:20;;;;;;;7.22;2.72;;;;;;;;;;5105051;28;20043;-72
2022/08/20 12:05:46;;;;;;;9.02;3.15;;;;;;;;;;5091315;28;20040;-72
2022/08/20 12:08:13;;;;;;;10.27;2.42;;;;;;;;;;5109741;28;20066;-72
2022/08/20 12:10:39;;;;;;;5.82;2.63;;;;;;;;;;5109581;28;20039;-72
2022/08/20 12:13:06;;;;;;;6.90;3.00;;;;;;;;;;5115985;27;20039;-73
2022/08/20 12:15:33;;;;;;;7.68;2.58;;;;;;;;;;5105423;27;20465;-72
2022/08/20 12:18:00;;;;;;;8.15;2.60;;;;;;;;;;5095971;28;20043;-72
2022/08/20 12:20:26;;;;;;;6.97;2.55;;;;;;;;;;5105776;27;20190;-72
2022/08/20 12:22:53;;;;;;;6.05;2.67;;;;;;;;;;5101213;27;20387;-71
2022/08/20 12:25:19;;;;;;;6.40;2.58;;;;;;;;;;5097518;28;20032;-72
2022/08/20 12:27:45;;;;;;;4.57;2.33;;;;;;;;;;5103395;27;20036;-71
2022/08/20 12:30:13;;;;;;;5.63;2.08;;;;;;;;;;5112578;27;20520;-71
2022/08/20 12:32:41;;;;;;;6.13;2.75;;;;;;;;;;5112717;27;20035;-71
2022/08/20 12:35:08;;;;;;;8.13;2.53;;;;;;;;;;5107708;28;20039;-72
2022/08/20 12:37:35;;;;;;;7.18;2.75;;;;;;;;;;5113072;27;20385;-71
2022/08/20 12:40:02;;;;;;;7.60;2.42;;;;;;;;;;5112843;28;20129;-71
2022/08/20 12:42:32;;;;;;;6.75;2.75;;;;;;;;;;5112987;27;20058;-71
2022/08/20 12:44:58;;;;;;;5.65;2.10;;;;;;;;;;5112540;27;20050;-71
2022/08/20 12:47:26;;;;;;;5.38;1.80;;;;;;;;;;5111070;28;20051;-70
2022/08/20 12:49:59;;;;;;;7.28;2.13;;;;;;;;;;5082589;28;20055;-71
2022/08/20 12:52:25;;;;;;;;;;;;;;;;;;5106416;27;20039;-71
2022/08/20 12:54:51;;;;;;;4.10;1.80;;;;;;;;;;5112785;27;19916;-71
2022/08/20 12:57:29;;;;;;;9.30;2.53;;;;;;;;;;5092853;28;20031;-71
2022/08/20 12:59:56;;;;;;;7.47;2.05;;;;;;;;;;5111146;27;20425;-71
2022/08/20 13:02:22;;;;;;;5.15;2.72;;;;;;;;;;5092733;28;20034;-71
2022/08/20 13:04:49;;;;;;;5.82;2.30;;;;;;;;;;5111936;28;20042;-71
2022/08/20 13:07:15;;;;;;;4.35;1.90;;;;;;;;;;5088646;28;20084;-72
2022/08/20 13:09:41;;;;;;;8.50;2.17;;;;;;;;;;5110830;28;20044;-72
2022/08/20 13:12:08;;;;;;;4.38;1.98;;;;;;;;;;5111977;27;20048;-71
2022/08/20 13:14:34;;;;;;;4.40;1.88;;;;;;;;;;5111636;27;20461;-71
2022/08/20 13:17:01;;;;;;;3.80;1.90;;;;;;;;;;5111337;28;20110;-71
2022/08/20 13:19:29;;;;;;;6.07;2.20;;;;;;;;;;5112056;28;20484;-70
2022/08/20 13:21:55;;;;;;;7.30;2.40;;;;;;;;;;5106337;27;20528;-71
2022/08/20 13:24:22;;;;;;;4.13;1.90;;;;;;;;;;5101976;27;20088;-71
2022/08/20 13:26:48;;;;;;;6.95;1.88;;;;;;;;;;5101718;27;20577;-71
2022/08/20 13:29:15;;;;;;;5.97;2.10;;;;;;;;;;5104081;28;20501;-71
2022/08/20 13:31:42;;;;;;;7.07;2.40;;;;;;;;;;5117342;27;20512;-71
2022/08/20 13:34:08;;;;;;;9.65;2.30;;;;;;;;;;5099596;27;20512;-71
2022/08/20 13:36:35;;;;;;;5.65;1.90;;;;;;;;;;5123282;27;20027;-71
2022/08/20 13:39:01;;;;;;;6.03;2.10;;;;;;;;;;5110758;27;20039;-71
2022/08/20 13:41:27;;;;;;;5.95;2.25;;;;;;;;;;5113162;27;20364;-70
2022/08/20 13:43:54;;;;;;;6.07;2.30;;;;;;;;;;5114036;27;20078;-71
2022/08/20 13:46:20;;;;;;;4.85;2.30;;;;;;;;;;5093609;28;20575;-71
2022/08/20 13:48:46;;;;;;;2.97;1.75;;;;;;;;;;5109319;28;20039;-71
2022/08/20 13:51:12;;;;;;;7.18;2.20;;;;;;;;;;5121113;27;20331;-71
2022/08/20 13:53:38;;;;;;;6.13;2.45;;;;;;;;;;5109686;28;20404;-71
2022/08/20 13:56:04;;;;;;;6.30;1.80;;;;;;;;;;5111244;28;20039;-71
2022/08/20 13:58:30;;;;;;;3.70;2.10;;;;;;;;;;5112053;27;20507;-71
2022/08/20 14:00:57;;;;;;;8.73;2.05;;;;;;;;;;5111697;28;20520;-71
2022/08/20 14:03:23;;;;;;;6.38;2.17;;;;;;;;;;5117466;27;20414;-71
2022/08/20 14:05:49;;;;;;;3.67;1.83;;;;;;;;;;5110641;28;20058;-71
2022/08/20 14:08:19;;;;;;;6.53;2.08;;;;;;;;;;5114564;27;20044;-71
2022/08/20 14:10:49;;;;;;;8.20;2.13;;;;;;;;;;5112358;27;20096;-71
2022/08/20 14:13:15;;;;;;;5.25;2.00;;;;;;;;;;5108125;28;20048;-71
2022/08/20 14:15:42;;;;;;;10.32;2.65;;;;;;;;;;5085638;28;20367;-71
2022/08/20 14:18:08;;;;;;;4.43;2.38;;;;;;;;;;5110733;27;20450;-71
2022/08/20 14:20:34;;;;;;;7.03;2.40;;;;;;;;;;5107565;27;20081;-71
2022/08/20 14:23:01;;;;;;;5.32;2.17;;;;;;;;;;5096055;27;20062;-71
2022/08/20 14:25:28;;;;;;;9.00;3.03;;;;;;;;;;5110397;28;20043;-71
2022/08/20 14:27:54;;;;;;;5.10;1.95;;;;;;;;;;5110093;27;20497;-70
2022/08/20 14:30:30;;;;;;;7.82;2.55;;;;;;;;;;5108608;28;20044;-71
2022/08/20 14:32:56;;;;;;;5.93;2.30;;;;;;;;;;5111120;27;20469;-71
2022/08/20 14:35:22;;;;;;;7.03;2.67;;;;;;;;;;5110060;27;20050;-71
2022/08/20 14:37:51;;;;;;;9.68;2.70;;;;;;;;;;5111476;27;20041;-70
2022/08/20 14:40:17;;;;;;;5.38;2.20;;;;;;;;;;5108610;27;20044;-71
2022/08/20 14:42:44;;;;;;;5.38;2.25;;;;;;;;;;5101393;27;20027;-71
2022/08/20 14:45:11;;;;;;;9.65;2.30;;;;;;;;;;5124918;27;20047;-71
2022/08/20 14:47:42;;;;;;;4.45;1.85;;;;;;;;;;5108983;27;20124;-70